createdAt,value
2023-08-03T00:00:02.322Z,99032.69
2023-08-03T00:01:04.327Z,99031.13
2023-08-03T00:02:06.287Z,99033.75
2023-08-03T00:03:08.348Z,99034.53
2023-08-03T00:04:10.443Z,99026.09
2023-08-03T00:05:12.472Z,99028.19
2023-08-03T00:06:14.254Z,99027.41
2023-08-03T00:07:16.240Z,99022.91
2023-08-03T00:08:18.380Z,99031.13
2023-08-03T00:09:20.330Z,99029.75
2023-08-03T00:10:22.906Z,99025.25
2023-08-03T00:11:25.003Z,99030.53
2023-08-03T00:12:27.113Z,99027.91
2023-08-03T00:13:28.890Z,99037.69
2023-08-03T00:14:30.681Z,99035.81
2023-08-03T00:15:32.481Z,99038.97
2023-08-03T00:16:34.330Z,99036.63
2023-08-03T00:17:38.170Z,99031.31
2023-08-03T00:18:41.061Z,99032.41
2023-08-03T00:19:44.743Z,99021.31
2023-08-03T00:20:49.029Z,99032.91
2023-08-03T00:21:50.828Z,99041.13
2023-08-03T00:22:52.700Z,99034.25
2023-08-03T00:23:54.480Z,99033.47
2023-08-03T00:24:56.297Z,99039.81
2023-08-03T00:25:58.156Z,99029.50
2023-08-03T00:27:00.017Z,99043.53
2023-08-03T00:28:01.862Z,99041.69
2023-08-03T00:29:03.682Z,99034.53
2023-08-03T00:30:06.646Z,99051.97
2023-08-03T00:31:08.505Z,99050.66
2023-08-03T00:32:10.475Z,99053.59
2023-08-03T00:33:12.312Z,99058.88
2023-08-03T00:34:14.118Z,99058.38
2023-08-03T00:35:15.952Z,99057.59
2023-08-03T00:36:17.754Z,99056.00
2023-08-03T00:37:19.551Z,99057.03
2023-08-03T00:38:23.774Z,99064.94
2023-08-03T00:39:26.000Z,99063.16
2023-08-03T00:40:27.799Z,99048.88
2023-08-03T00:41:29.671Z,99052.31
2023-08-03T00:42:31.548Z,99057.88
2023-08-03T00:43:33.491Z,99055.78
2023-08-03T00:44:35.596Z,99054.50
2023-08-03T00:45:37.707Z,99068.22
2023-08-03T00:46:39.891Z,99063.50
2023-08-03T00:47:42.054Z,99069.03
2023-08-03T00:48:43.917Z,99067.47
2023-08-03T00:49:46.029Z,99067.47
2023-08-03T00:50:47.860Z,99066.97
2023-08-03T00:51:49.735Z,99065.59
2023-08-03T00:52:51.531Z,99065.09
2023-08-03T00:53:53.313Z,99065.88
2023-08-03T00:54:55.121Z,99058.25
2023-08-03T00:55:56.928Z,99060.59
2023-08-03T00:56:58.824Z,99053.75
2023-08-03T00:58:00.988Z,99057.19
2023-08-03T00:59:12.041Z,99059.81
2023-08-03T01:00:14.537Z,99057.72
2023-08-03T01:01:16.413Z,99062.75
2023-08-03T01:02:18.267Z,99066.44
2023-08-03T01:03:20.135Z,99063.53
2023-08-03T01:04:21.986Z,99064.31
2023-08-03T01:05:23.845Z,99060.34
2023-08-03T01:06:26.290Z,99065.09
2023-08-03T01:07:28.192Z,99058.50
2023-08-03T01:08:30.451Z,99064.31
2023-08-03T01:09:32.286Z,99060.63
2023-08-03T01:10:34.337Z,99066.44
2023-08-03T01:11:36.349Z,99064.59
2023-08-03T01:12:38.432Z,99060.09
2023-08-03T01:13:41.103Z,99064.31
2023-08-03T01:14:44.555Z,99065.88
2023-08-03T01:15:46.813Z,99070.09
2023-08-03T01:16:48.908Z,99067.47
2023-08-03T01:17:50.925Z,99072.47
2023-08-03T01:18:53.040Z,99068.78
2023-08-03T01:19:55.003Z,99072.47
2023-08-03T01:20:57.918Z,99073.25
2023-08-03T01:22:01.638Z,99077.50
2023-08-03T01:23:06.147Z,99071.16
2023-08-03T01:24:08.459Z,99073.81
2023-08-03T01:25:12.301Z,99085.16
2023-08-03T01:26:14.145Z,99082.53
2023-08-03T01:27:16.236Z,99090.44
2023-08-03T01:28:18.146Z,99088.88
2023-08-03T01:29:19.973Z,99091.25
2023-08-03T01:30:21.817Z,99096.81
2023-08-03T01:31:23.932Z,99092.31
2023-08-03T01:32:26.175Z,99089.66
2023-08-03T01:33:28.187Z,99089.16
2023-08-03T01:34:30.237Z,99089.41
2023-08-03T01:35:32.183Z,99094.69
2023-08-03T01:36:33.970Z,99090.50
2023-08-03T01:37:38.559Z,99093.41
2023-08-03T01:38:40.457Z,99086.03
2023-08-03T01:39:46.235Z,99092.38
2023-08-03T01:40:48.122Z,99088.16
2023-08-03T01:41:50.244Z,99089.22
2023-08-03T01:42:52.083Z,99098.22
2023-08-03T01:44:28.814Z,99107.22
2023-08-03T01:45:30.717Z,99102.19
2023-08-03T01:46:32.756Z,99100.34
2023-08-03T01:47:34.778Z,99104.84
2023-08-03T01:48:36.608Z,99106.44
2023-08-03T01:49:38.504Z,99112.75
2023-08-03T01:50:40.338Z,99108.25
2023-08-03T01:51:42.434Z,99111.72
2023-08-03T01:52:44.502Z,99110.13
2023-08-03T01:53:46.663Z,99114.09
2023-08-03T01:54:48.532Z,99122.81
2023-08-03T01:55:50.844Z,99118.88
2023-08-03T01:56:55.110Z,99119.69
2023-08-03T01:57:57.255Z,99132.09
2023-08-03T01:58:59.117Z,99131.56
2023-08-03T02:00:01.063Z,99132.63
2023-08-03T02:01:03.740Z,99136.34
2023-08-03T02:02:06.009Z,99136.34
2023-08-03T02:03:08.242Z,99139.50
2023-08-03T02:04:10.189Z,99137.16
2023-08-03T02:05:12.092Z,99140.06
2023-08-03T02:06:13.903Z,99142.72
2023-08-03T02:07:47.898Z,99137.72
2023-08-03T02:08:49.951Z,99140.59
2023-08-03T02:09:54.787Z,99130.88
2023-08-03T02:10:56.836Z,99135.09
2023-08-03T02:11:58.617Z,99134.31
2023-08-03T02:13:00.509Z,99131.13
2023-08-03T02:14:02.426Z,99136.94
2023-08-03T02:15:08.244Z,99130.88
2023-08-03T02:16:23.752Z,99132.44
2023-08-03T02:17:29.147Z,99130.09
2023-08-03T02:18:31.688Z,99125.59
2023-08-03T02:19:35.956Z,99133.53
2023-08-03T02:20:40.282Z,99128.25
2023-08-03T02:21:42.361Z,99135.38
2023-08-03T02:22:44.803Z,99125.84
2023-08-03T02:23:47.224Z,99127.44
2023-08-03T02:24:48.964Z,99128.50
2023-08-03T02:25:53.980Z,99127.69
2023-08-03T02:26:55.802Z,99124.03
2023-08-03T02:27:57.603Z,99131.94
2023-08-03T02:28:59.532Z,99125.06
2023-08-03T02:30:01.330Z,99135.38
2023-08-03T02:31:03.142Z,99130.88
2023-08-03T02:32:05.615Z,99130.09
2023-08-03T02:33:07.447Z,99133.53
2023-08-03T02:34:09.263Z,99125.84
2023-08-03T02:35:11.106Z,99128.50
2023-08-03T02:36:12.983Z,99130.88
2023-08-03T02:37:14.960Z,99128.25
2023-08-03T02:38:16.817Z,99136.66
2023-08-03T02:39:18.672Z,99134.81
2023-08-03T02:40:20.476Z,99132.72
2023-08-03T02:41:22.294Z,99131.66
2023-08-03T02:42:24.123Z,99123.22
2023-08-03T02:43:28.134Z,99126.38
2023-08-03T02:44:29.987Z,99126.09
2023-08-03T02:45:31.804Z,99127.69
2023-08-03T02:46:33.584Z,99126.59
2023-08-03T02:47:35.422Z,99132.16
2023-08-03T02:48:37.318Z,99119.75
2023-08-03T02:49:39.146Z,99129.25
2023-08-03T02:50:41.431Z,99130.84
2023-08-03T02:51:46.554Z,99127.16
2023-08-03T02:52:48.773Z,99115.78
2023-08-03T02:53:50.574Z,99121.06
2023-08-03T02:54:52.472Z,99121.06
2023-08-03T02:55:54.439Z,99113.94
2023-08-03T02:56:56.316Z,99114.19
2023-08-03T02:57:58.253Z,99118.69
2023-08-03T02:59:00.139Z,99122.13
2023-08-03T03:00:01.951Z,99120.28
2023-08-03T03:01:05.940Z,99120.53
2023-08-03T03:02:07.922Z,99115.53
2023-08-03T03:03:09.915Z,99116.31
2023-08-03T03:04:12.296Z,99118.44
2023-08-03T03:05:14.166Z,99117.13
2023-08-03T03:06:15.982Z,99116.03
2023-08-03T03:07:17.845Z,99116.84
2023-08-03T03:08:19.705Z,99123.44
2023-08-03T03:09:21.473Z,99122.66
2023-08-03T03:10:23.232Z,99117.09
2023-08-03T03:11:25.035Z,99119.19
2023-08-03T03:12:27.113Z,99125.78
2023-08-03T03:13:28.904Z,99119.69
2023-08-03T03:14:30.786Z,99124.69
2023-08-03T03:15:32.613Z,99119.41
2023-08-03T03:16:34.461Z,99124.41
2023-08-03T03:17:36.358Z,99125.75
2023-08-03T03:18:38.245Z,99123.88
2023-08-03T03:19:40.070Z,99125.75
2023-08-03T03:20:41.903Z,99116.25
2023-08-03T03:21:43.985Z,99126.81
2023-08-03T03:22:46.098Z,99117.28
2023-08-03T03:23:50.987Z,99121.78
2023-08-03T03:24:52.837Z,99122.56
2023-08-03T03:25:54.719Z,99124.97
2023-08-03T03:26:56.542Z,99125.75
2023-08-03T03:28:05.096Z,99116.75
2023-08-03T03:29:07.031Z,99122.31
2023-08-03T03:30:09.544Z,99118.88
2023-08-03T03:31:11.345Z,99121.53
2023-08-03T03:32:13.144Z,99124.41
2023-08-03T03:33:15.039Z,99125.22
2023-08-03T03:34:16.868Z,99132.34
2023-08-03T03:35:18.778Z,99126.56
2023-08-03T03:36:20.528Z,99124.69
2023-08-03T03:37:22.438Z,99129.72
2023-08-03T03:38:24.186Z,99122.56
2023-08-03T03:39:26.000Z,99119.13
2023-08-03T03:40:29.160Z,99121.53
2023-08-03T03:41:30.959Z,99120.75
2023-08-03T03:42:32.744Z,99131.53
2023-08-03T03:43:34.599Z,99129.97
2023-08-03T03:44:36.490Z,99123.09
2023-08-03T03:45:38.353Z,99118.31
2023-08-03T03:46:40.336Z,99118.31
2023-08-03T03:47:42.714Z,99110.69
2023-08-03T03:48:44.623Z,99119.09
2023-08-03T03:49:47.852Z,99126.25
2023-08-03T03:50:49.770Z,99117.25
2023-08-03T03:51:51.491Z,99121.75
2023-08-03T03:52:53.320Z,99121.47
2023-08-03T03:53:55.154Z,99112.75
2023-08-03T03:54:56.964Z,99121.47
2023-08-03T03:55:58.799Z,99115.16
2023-08-03T03:57:01.827Z,99115.41
2023-08-03T03:58:04.059Z,99127.56
2023-08-03T03:59:05.948Z,99118.81
2023-08-03T04:00:09.132Z,99124.94
2023-08-03T04:01:10.951Z,99119.66
2023-08-03T04:02:12.884Z,99119.38
2023-08-03T04:03:14.777Z,99116.72
2023-08-03T04:04:16.614Z,99116.72
2023-08-03T04:05:18.544Z,99122.50
2023-08-03T04:06:20.373Z,99116.16
2023-08-03T04:07:22.268Z,99117.72
2023-08-03T04:08:24.028Z,99108.22
2023-08-03T04:09:25.925Z,99117.72
2023-08-03T04:10:27.801Z,99114.84
2023-08-03T04:11:49.677Z,99113.75
2023-08-03T04:13:11.465Z,99120.91
2023-08-03T04:14:33.349Z,99111.41
2023-08-03T04:15:35.161Z,99115.91
2023-08-03T04:16:36.947Z,99112.97
2023-08-03T04:17:39.694Z,99111.91
2023-08-03T04:18:41.868Z,99110.84
2023-08-03T04:19:43.691Z,99113.47
2023-08-03T04:20:45.651Z,99113.19
2023-08-03T04:21:47.791Z,99122.44
2023-08-03T04:22:49.668Z,99111.88
2023-08-03T04:23:51.475Z,99106.06
2023-08-03T04:24:53.252Z,99120.59
2023-08-03T04:25:55.141Z,99117.94
2023-08-03T04:26:56.894Z,99117.16
2023-08-03T04:27:59.384Z,99113.97
2023-08-03T04:29:01.205Z,99116.63
2023-08-03T04:30:03.187Z,99117.16
2023-08-03T04:31:04.957Z,99123.22
2023-08-03T04:32:07.598Z,99122.44
2023-08-03T04:33:09.459Z,99125.09
2023-08-03T04:34:11.259Z,99125.09
2023-08-03T04:35:15.099Z,99127.44
2023-08-03T04:36:16.834Z,99118.72
2023-08-03T04:37:18.650Z,99120.31
2023-08-03T04:38:20.473Z,99124.28
2023-08-03T04:39:22.283Z,99117.13
2023-08-03T04:40:24.069Z,99126.63
2023-08-03T04:41:25.911Z,99120.28
2023-08-03T04:42:27.710Z,99120.78
2023-08-03T04:43:30.026Z,99118.91
2023-08-03T04:44:31.926Z,99129.25
2023-08-03T04:45:34.615Z,99117.59
2023-08-03T04:46:36.492Z,99118.66
2023-08-03T04:47:39.234Z,99116.53
2023-08-03T04:48:41.285Z,99123.66
2023-08-03T04:49:43.036Z,99119.97
2023-08-03T04:50:44.809Z,99121.53
2023-08-03T04:51:47.005Z,99110.94
2023-08-03T04:52:49.145Z,99120.47
2023-08-03T04:53:50.947Z,99113.38
2023-08-03T04:54:52.720Z,99113.88
2023-08-03T04:55:54.546Z,99118.38
2023-08-03T04:56:56.300Z,99108.31
2023-08-03T04:57:58.196Z,99114.38
2023-08-03T04:58:59.946Z,99115.69
2023-08-03T05:00:01.806Z,99106.69
2023-08-03T05:01:03.991Z,99113.56
2023-08-03T05:02:05.962Z,99104.56
2023-08-03T05:03:07.853Z,99114.84
2023-08-03T05:04:10.441Z,99116.16
2023-08-03T05:05:12.454Z,99110.34
2023-08-03T05:06:14.271Z,99111.66
2023-08-03T05:07:16.072Z,99114.31
2023-08-03T05:08:17.940Z,99103.72
2023-08-03T05:09:19.728Z,99115.88
2023-08-03T05:10:21.576Z,99111.09
2023-08-03T05:11:23.428Z,99110.03
2023-08-03T05:12:25.181Z,99109.22
2023-08-03T05:13:26.971Z,99110.84
2023-08-03T05:14:28.853Z,99109.75
2023-08-03T05:15:30.612Z,99112.41
2023-08-03T05:16:32.410Z,99108.41
2023-08-03T05:17:34.353Z,99106.53
2023-08-03T05:18:36.486Z,99106.00
2023-08-03T05:19:38.763Z,99100.72
2023-08-03T05:20:40.566Z,99106.50
2023-08-03T05:21:42.497Z,99108.31
2023-08-03T05:22:44.660Z,99103.53
2023-08-03T05:23:48.053Z,99101.41
2023-08-03T05:24:49.857Z,99103.25
2023-08-03T05:25:56.936Z,99106.41
2023-08-03T05:26:58.710Z,99102.97
2023-08-03T05:28:02.221Z,99105.63
2023-08-03T05:29:04.633Z,99100.06
2023-08-03T05:30:08.693Z,99096.06
2023-08-03T05:31:10.613Z,99100.28
2023-08-03T05:32:12.438Z,99106.09
2023-08-03T05:33:14.375Z,99099.44
2023-08-03T05:34:19.147Z,99103.09
2023-08-03T05:35:21.091Z,99106.78
2023-08-03T05:36:24.872Z,99098.56
2023-08-03T05:37:26.845Z,99102.75
2023-08-03T05:38:28.932Z,99101.94
2023-08-03T05:39:30.773Z,99105.84
2023-08-03T05:40:32.824Z,99101.88
2023-08-03T05:41:35.114Z,99100.75
2023-08-03T05:42:41.748Z,99100.16
2023-08-03T05:43:46.329Z,99113.84
2023-08-03T05:44:48.352Z,99106.94
2023-08-03T05:46:02.016Z,99110.31
2023-08-03T05:47:04.117Z,99113.47
2023-08-03T05:48:16.987Z,99109.75
2023-08-03T05:49:18.848Z,99109.50
2023-08-03T05:50:20.807Z,99113.22
2023-08-03T05:51:28.980Z,99113.41
2023-08-03T05:52:31.256Z,99104.19
2023-08-03T05:53:33.934Z,99106.84
2023-08-03T05:54:35.728Z,99112.94
2023-08-03T05:55:39.714Z,99107.91
2023-08-03T05:56:42.270Z,99102.63
2023-08-03T05:57:44.638Z,99099.97
2023-08-03T05:58:46.740Z,99108.13
2023-08-03T05:59:48.957Z,99109.94
2023-08-03T06:00:51.742Z,99114.03
2023-08-03T06:01:53.968Z,99116.53
2023-08-03T06:03:02.453Z,99115.53
2023-08-03T06:04:14.261Z,99107.88
2023-08-03T06:05:47.108Z,99113.09
2023-08-03T06:06:49.076Z,99116.44
2023-08-03T06:07:50.929Z,99109.50
2023-08-03T06:08:57.591Z,99115.63
2023-08-03T06:09:59.454Z,99116.13
2023-08-03T06:11:05.629Z,99114.75
2023-08-03T06:12:15.788Z,99119.50
2023-08-03T06:13:22.467Z,99114.69
2023-08-03T06:14:24.279Z,99114.84
2023-08-03T06:15:26.067Z,99119.16
2023-08-03T06:16:28.090Z,99110.75
2023-08-03T06:17:29.864Z,99109.75
2023-08-03T06:18:33.390Z,99105.13
2023-08-03T06:19:36.761Z,99107.28
2023-08-03T06:20:47.905Z,99114.88
2023-08-03T06:21:49.922Z,99113.34
2023-08-03T06:22:51.752Z,99115.63
2023-08-03T06:24:01.089Z,99115.38
2023-08-03T06:25:10.596Z,99112.91
2023-08-03T06:26:16.318Z,99114.09
2023-08-03T06:27:18.179Z,99115.09
2023-08-03T06:28:24.323Z,99116.41
2023-08-03T06:29:26.198Z,99106.38
2023-08-03T06:30:28.109Z,99118.84
2023-08-03T06:31:42.877Z,99121.97
2023-08-03T06:32:45.574Z,99118.09
2023-08-03T06:33:48.637Z,99119.09
2023-08-03T06:34:50.597Z,99120.69
2023-08-03T06:35:57.063Z,99113.47
2023-08-03T06:37:00.529Z,99117.78
2023-08-03T06:38:03.732Z,99112.13
2023-08-03T06:39:05.606Z,99129.06
2023-08-03T06:40:08.361Z,99116.59
2023-08-03T06:41:10.962Z,99131.09
2023-08-03T06:42:12.714Z,99116.88
2023-08-03T06:43:15.870Z,99127.75
2023-08-03T06:44:17.971Z,99127.94
2023-08-03T06:45:19.964Z,99129.97
2023-08-03T06:46:22.969Z,99127.63
2023-08-03T06:47:24.810Z,99130.41
2023-08-03T06:48:26.913Z,99128.97
2023-08-03T06:49:28.852Z,99128.13
2023-08-03T06:50:35.373Z,99120.06
2023-08-03T06:51:39.567Z,99119.78
2023-08-03T06:52:41.459Z,99128.78
2023-08-03T06:53:44.126Z,99121.50
2023-08-03T06:54:46.154Z,99137.56
2023-08-03T06:55:51.173Z,99133.16
2023-08-03T06:56:53.390Z,99134.63
2023-08-03T06:57:55.212Z,99132.66
2023-08-03T06:58:57.008Z,99131.19
2023-08-03T06:59:59.412Z,99131.78
2023-08-03T07:01:01.819Z,99142.50
2023-08-03T07:02:03.810Z,99134.16
2023-08-03T07:03:05.741Z,99144.09
2023-08-03T07:04:07.593Z,99147.94
2023-08-03T07:06:12.057Z,99134.50
2023-08-03T07:07:15.339Z,99150.25
2023-08-03T07:08:17.577Z,99151.91
2023-08-03T07:09:19.423Z,99153.28
2023-08-03T07:10:21.221Z,99149.03
2023-08-03T07:11:23.271Z,99156.50
2023-08-03T07:12:25.057Z,99150.41
2023-08-03T07:13:26.920Z,99155.44
2023-08-03T07:14:28.774Z,99153.84
2023-08-03T07:15:35.220Z,99163.91
2023-08-03T07:16:38.132Z,99164.97
2023-08-03T07:17:40.083Z,99168.44
2023-08-03T07:18:41.913Z,99167.34
2023-08-03T07:19:43.884Z,99159.66
2023-08-03T07:20:45.656Z,99175.31
2023-08-03T07:21:47.686Z,99180.59
2023-08-03T07:22:50.105Z,99177.16
2023-08-03T07:23:51.970Z,99166.34
2023-08-03T07:24:53.795Z,99176.47
2023-08-03T07:25:56.036Z,99170.66
2023-08-03T07:26:57.861Z,99183.72
2023-08-03T07:28:00.991Z,99183.50
2023-08-03T07:29:03.033Z,99184.91
2023-08-03T07:30:07.009Z,99185.47
2023-08-03T07:31:16.304Z,99174.66
2023-08-03T07:32:18.437Z,99190.56
2023-08-03T07:33:20.256Z,99186.63
2023-08-03T07:34:22.447Z,99186.63
2023-08-03T07:35:24.330Z,99183.19
2023-08-03T07:36:26.118Z,99185.84
2023-08-03T07:37:27.968Z,99180.53
2023-08-03T07:38:29.775Z,99186.31
2023-08-03T07:39:32.667Z,99190.28
2023-08-03T07:40:34.463Z,99189.69
2023-08-03T07:41:36.414Z,99192.56
2023-08-03T07:42:38.354Z,99181.06
2023-08-03T07:43:40.243Z,99191.88
2023-08-03T07:46:51.599Z,99185.91
2023-08-03T07:47:53.596Z,99185.31
2023-08-03T07:48:56.885Z,99189.28
2023-08-03T07:50:00.544Z,99185.53
2023-08-03T07:51:18.930Z,99188.97
2023-08-03T07:52:23.397Z,99193.19
2023-08-03T07:53:25.261Z,99181.72
2023-08-03T07:54:27.052Z,99203.13
2023-08-03T07:55:28.856Z,99191.28
2023-08-03T07:56:30.970Z,99197.59
2023-08-03T07:57:39.563Z,99182.13
2023-08-03T07:58:41.329Z,99186.53
2023-08-03T07:59:52.007Z,99190.19
2023-08-03T08:00:53.867Z,99178.72
2023-08-03T08:01:55.779Z,99180.31
2023-08-03T08:02:57.851Z,99179.66
2023-08-03T08:03:59.925Z,99179.66
2023-08-03T08:05:01.749Z,99182.44
2023-08-03T08:06:12.411Z,99180.94
2023-08-03T08:07:14.567Z,99187.84
2023-08-03T08:08:16.338Z,99177.31
2023-08-03T08:09:18.151Z,99187.19
2023-08-03T08:10:20.012Z,99171.59
2023-08-03T08:11:22.203Z,99184.22
2023-08-03T08:12:24.022Z,99186.44
2023-08-03T08:13:26.028Z,99181.22
2023-08-03T08:14:27.869Z,99194.53
2023-08-03T08:15:30.113Z,99164.31
2023-08-03T08:16:32.230Z,99178.06
2023-08-03T08:17:34.238Z,99190.81
2023-08-03T08:18:37.753Z,99178.53
2023-08-03T08:19:39.692Z,99195.53
2023-08-03T08:20:41.603Z,99192.78
2023-08-03T08:21:43.753Z,99194.28
2023-08-03T08:22:45.836Z,99195.94
2023-08-03T08:23:47.710Z,99186.25
2023-08-03T08:24:49.671Z,99198.72
2023-08-03T08:25:52.760Z,99194.50
2023-08-03T08:26:55.191Z,99192.44
2023-08-03T08:27:57.321Z,99209.66
2023-08-03T08:29:04.293Z,99196.38
2023-08-03T08:30:09.053Z,99202.00
2023-08-03T08:31:11.101Z,99207.88
2023-08-03T08:32:13.338Z,99199.41
2023-08-03T08:33:18.897Z,99195.75
2023-08-03T08:34:20.829Z,99188.69
2023-08-03T08:35:22.671Z,99196.28
2023-08-03T08:36:25.494Z,99213.47
2023-08-03T08:37:29.362Z,99210.28
2023-08-03T08:38:32.315Z,99206.03
2023-08-03T08:39:34.184Z,99199.63
2023-08-03T08:40:38.136Z,99205.81
2023-08-03T08:41:43.492Z,99214.59
2023-08-03T08:42:53.749Z,99201.44
2023-08-03T08:43:55.624Z,99200.00
2023-08-03T08:44:57.609Z,99201.56
2023-08-03T08:45:59.827Z,99210.94
2023-08-03T08:47:01.740Z,99209.78
2023-08-03T08:52:00.020Z,99204.00
2023-08-03T09:00:01.076Z,99214.69
2023-08-03T09:01:06.312Z,99230.25
2023-08-03T09:02:08.438Z,99214.88
2023-08-03T09:03:10.571Z,99223.03
2023-08-03T09:07:20.650Z,99213.56
2023-08-03T09:08:22.924Z,99242.75
2023-08-03T09:09:34.935Z,99236.34
2023-08-03T09:10:55.598Z,99233.69
2023-08-03T09:11:57.728Z,99235.09
2023-08-03T09:13:00.106Z,99231.63
2023-08-03T09:14:04.767Z,99226.16
2023-08-03T09:15:08.163Z,99226.00
2023-08-03T09:16:25.640Z,99228.22
2023-08-03T09:17:29.176Z,99226.34
2023-08-03T09:18:33.471Z,99234.66
2023-08-03T09:20:43.404Z,99224.59
2023-08-03T09:24:36.603Z,99241.41
2023-08-03T09:25:41.543Z,99242.97
2023-08-03T09:29:21.171Z,99240.19
2023-08-03T09:32:57.174Z,99240.88
2023-08-03T09:34:01.345Z,99242.09
2023-08-03T09:35:15.935Z,99245.34
2023-08-03T09:38:42.849Z,99241.69
2023-08-03T09:39:56.552Z,99241.22
2023-08-03T09:41:00.559Z,99246.03
2023-08-03T09:42:35.323Z,99243.69
2023-08-03T09:43:36.061Z,99244.31
2023-08-03T09:44:40.259Z,99244.91
2023-08-03T09:45:43.237Z,99241.75
2023-08-03T09:46:50.404Z,99257.94
2023-08-03T09:47:57.239Z,99253.63
2023-08-03T09:50:05.491Z,99260.91
2023-08-03T09:51:11.107Z,99255.31
2023-08-03T09:52:49.083Z,99252.69
2023-08-03T09:53:44.554Z,99258.19
2023-08-03T09:55:07.958Z,99253.34
2023-08-03T09:56:12.129Z,99250.53
2023-08-03T09:58:31.915Z,99256.94
2023-08-03T09:59:40.370Z,99255.88
2023-08-03T10:00:47.219Z,99245.25
2023-08-03T10:01:52.950Z,99262.91
2023-08-03T10:03:08.501Z,99258.97
2023-08-03T10:04:17.960Z,99252.63
2023-08-03T10:06:40.069Z,99255.53
2023-08-03T10:08:04.832Z,99252.41
2023-08-03T10:09:09.572Z,99252.41
2023-08-03T10:10:14.815Z,99243.66
2023-08-03T10:11:16.852Z,99236.00
2023-08-03T10:12:35.541Z,99241.66
2023-08-03T10:13:45.698Z,99234.13
2023-08-03T10:14:53.065Z,99251.88
2023-08-03T10:15:55.997Z,99254.69
2023-08-03T10:17:01.806Z,99249.66
2023-08-03T10:18:05.986Z,99240.88
2023-08-03T10:19:09.737Z,99246.22
2023-08-03T10:20:12.305Z,99247.44
2023-08-03T10:21:14.918Z,99254.03
2023-08-03T10:22:17.028Z,99247.41
2023-08-03T10:23:20.150Z,99260.88
2023-08-03T10:24:22.125Z,99256.78
2023-08-03T10:25:24.249Z,99268.84
2023-08-03T10:26:26.058Z,99267.91
2023-08-03T10:27:27.916Z,99274.31
2023-08-03T10:28:41.882Z,99250.34
2023-08-03T10:29:54.380Z,99258.19
2023-08-03T10:31:22.431Z,99257.66
2023-08-03T10:32:29.367Z,99267.38
2023-08-03T10:33:52.436Z,99254.47
2023-08-03T10:34:59.639Z,99244.56
2023-08-03T10:36:01.830Z,99254.56
2023-08-03T10:37:14.036Z,99255.31
2023-08-03T10:38:23.198Z,99255.25
2023-08-03T10:39:49.844Z,99255.53
2023-08-03T10:41:45.913Z,99258.13
2023-08-03T10:43:10.685Z,99251.34
2023-08-03T10:44:15.926Z,99254.31
2023-08-03T10:45:23.743Z,99261.53
2023-08-03T10:46:52.734Z,99251.66
2023-08-03T10:48:22.879Z,99239.94
2023-08-03T10:49:24.893Z,99252.03
2023-08-03T10:51:04.032Z,99250.13
2023-08-03T10:52:40.868Z,99255.84
2023-08-03T10:53:42.657Z,99263.41
2023-08-03T10:54:46.582Z,99251.03
2023-08-03T10:55:49.420Z,99273.63
2023-08-03T10:57:05.735Z,99259.34
2023-08-03T10:58:07.650Z,99247.72
2023-08-03T10:59:09.469Z,99258.78
2023-08-03T11:00:13.228Z,99248.88
2023-08-03T11:01:25.520Z,99270.28
2023-08-03T11:02:32.834Z,99261.66
2023-08-03T11:03:38.940Z,99262.81
2023-08-03T11:04:42.364Z,99264.50
2023-08-03T11:05:53.239Z,99287.97
2023-08-03T11:06:55.097Z,99271.53
2023-08-03T11:07:58.022Z,99251.03
2023-08-03T11:08:59.993Z,99272.31
2023-08-03T11:10:10.522Z,99272.81
2023-08-03T11:11:13.240Z,99276.44
2023-08-03T11:12:19.581Z,99270.25
2023-08-03T11:13:22.786Z,99244.09
2023-08-03T11:14:25.215Z,99279.38
2023-08-03T11:15:28.327Z,99258.44
2023-08-03T11:16:32.697Z,99252.09
2023-08-03T11:17:38.652Z,99251.81
2023-08-03T11:18:49.403Z,99267.06
2023-08-03T11:19:53.115Z,99262.41
2023-08-03T11:20:54.992Z,99265.22
2023-08-03T11:21:56.977Z,99264.13
2023-08-03T11:22:58.839Z,99276.38
2023-08-03T11:24:00.833Z,99272.31
2023-08-03T11:25:07.210Z,99280.16
2023-08-03T11:26:11.752Z,99291.75
2023-08-03T11:27:14.375Z,99283.00
2023-08-03T11:28:22.685Z,99294.16
2023-08-03T11:29:25.068Z,99288.97
2023-08-03T11:30:28.508Z,99279.59
2023-08-03T11:31:30.377Z,99293.72
2023-08-03T11:32:35.014Z,99296.38
2023-08-03T11:33:39.580Z,99284.28
2023-08-03T11:34:41.626Z,99297.25
2023-08-03T11:35:44.556Z,99299.84
2023-08-03T11:36:52.230Z,99297.94
2023-08-03T11:37:54.028Z,99294.56
2023-08-03T11:38:55.856Z,99298.44
2023-08-03T11:40:00.206Z,99289.47
2023-08-03T11:41:02.694Z,99293.53
2023-08-03T11:42:05.572Z,99304.16
2023-08-03T11:43:08.151Z,99298.84
2023-08-03T11:44:10.362Z,99291.16
2023-08-03T11:45:13.884Z,99300.44
2023-08-03T11:46:15.863Z,99301.38
2023-08-03T11:47:18.065Z,99303.16
2023-08-03T11:48:25.788Z,99293.75
2023-08-03T11:49:31.312Z,99288.16
2023-08-03T11:50:33.213Z,99299.28
2023-08-03T11:51:38.158Z,99300.41
2023-08-03T11:52:40.169Z,99301.25
2023-08-03T11:53:42.171Z,99297.97
2023-08-03T11:54:45.728Z,99297.25
2023-08-03T11:55:48.928Z,99295.84
2023-08-03T11:56:51.522Z,99300.56
2023-08-03T11:58:14.893Z,99297.09
2023-08-03T11:59:16.811Z,99291.59
2023-08-03T12:00:19.689Z,99293.50
2023-08-03T12:01:27.044Z,99298.97
2023-08-03T12:02:47.112Z,99291.94
2023-08-03T12:03:49.410Z,99298.06
2023-08-03T12:04:54.476Z,99300.72
2023-08-03T12:06:10.238Z,99310.41
2023-08-03T12:07:29.141Z,99302.06
2023-08-03T12:08:31.168Z,99312.06
2023-08-03T12:09:40.989Z,99300.75
2023-08-03T12:11:02.775Z,99312.03
2023-08-03T12:12:08.292Z,99306.81
2023-08-03T12:13:10.133Z,99315.13
2023-08-03T12:14:12.078Z,99296.59
2023-08-03T12:15:14.008Z,99300.97
2023-08-03T12:16:16.014Z,99306.13
2023-08-03T12:17:17.896Z,99307.81
2023-08-03T12:18:20.879Z,99309.22
2023-08-03T12:19:22.821Z,99306.34
2023-08-03T12:20:27.260Z,99311.50
2023-08-03T12:21:29.506Z,99319.78
2023-08-03T12:22:34.401Z,99312.09
2023-08-03T12:23:36.376Z,99319.88
2023-08-03T12:24:38.261Z,99309.25
2023-08-03T12:25:42.329Z,99320.19
2023-08-03T12:26:44.516Z,99324.75
2023-08-03T12:27:46.415Z,99324.25
2023-08-03T12:28:48.401Z,99333.81
2023-08-03T12:29:50.250Z,99328.19
2023-08-03T12:30:53.318Z,99338.06
2023-08-03T12:31:55.294Z,99326.94
2023-08-03T12:32:57.404Z,99313.09
2023-08-03T12:33:59.622Z,99339.69
2023-08-03T12:35:01.495Z,99332.50
2023-08-03T12:36:03.442Z,99331.16
2023-08-03T12:37:05.976Z,99325.22
2023-08-03T12:38:08.098Z,99334.66
2023-08-03T12:39:10.865Z,99339.88
2023-08-03T12:40:14.689Z,99335.53
2023-08-03T12:41:19.002Z,99331.47
2023-08-03T12:42:22.663Z,99334.91
2023-08-03T12:43:24.891Z,99340.22
2023-08-03T12:44:27.598Z,99340.53
2023-08-03T12:45:29.528Z,99351.81
2023-08-03T12:46:31.452Z,99357.84
2023-08-03T12:47:36.891Z,99366.75
2023-08-03T12:48:39.075Z,99387.44
2023-08-03T12:49:40.976Z,99382.31
2023-08-03T12:50:42.776Z,99396.53
2023-08-03T12:51:44.530Z,99395.56
2023-08-03T12:52:47.697Z,99396.44
2023-08-03T12:53:50.368Z,99406.34
2023-08-03T12:54:53.586Z,99407.09
2023-08-03T12:55:55.834Z,99405.38
2023-08-03T12:56:57.675Z,99414.53
2023-08-03T12:57:59.491Z,99412.53
2023-08-03T12:59:01.461Z,99407.31
2023-08-03T13:00:03.997Z,99411.63
2023-08-03T13:01:05.862Z,99415.66
2023-08-03T13:02:07.729Z,99414.88
2023-08-03T13:03:09.666Z,99411.97